sensor_id;sensor_type;location;lat;lon;timestamp;pressure;altitude;pressure_sealevel;temperature;humidity
60852;BME280;48553;50.766;2.900;2023-03-04T00:00:02;102076.66;;;6.23;70.85
60852;BME280;48553;50.766;2.900;2023-03-04T00:03:03;102085.38;;;6.25;70.81
60852;BME280;48553;50.766;2.900;2023-03-04T00:06:03;102089.47;;;6.23;70.72
60852;BME280;48553;50.766;2.900;2023-03-04T00:09:04;102085.38;;;6.25;70.83
60852;BME280;48553;50.766;2.900;2023-03-04T00:12:05;102075.84;;;6.23;70.96
60852;BME280;48553;50.766;2.900;2023-03-04T00:15:08;102078.03;;;6.21;70.91
60852;BME280;48553;50.766;2.900;2023-03-04T00:18:08;102085.09;;;6.22;70.97
60852;BME280;48553;50.766;2.900;2023-03-04T00:21:09;102081.81;;;6.20;70.70
60852;BME280;48553;50.766;2.900;2023-03-04T00:24:09;102084.28;;;6.21;70.95
60852;BME280;48553;50.766;2.900;2023-03-04T00:27:09;102082.13;;;6.18;70.89
60852;BME280;48553;50.766;2.900;2023-03-04T00:30:10;102091.34;;;6.17;71.06
60852;BME280;48553;50.766;2.900;2023-03-04T00:33:11;102086.75;;;6.18;70.86
60852;BME280;48553;50.766;2.900;2023-03-04T00:36:11;102082.94;;;6.19;70.91
60852;BME280;48553;50.766;2.900;2023-03-04T00:39:12;102094.63;;;6.19;70.96
60852;BME280;48553;50.766;2.900;2023-03-04T00:42:12;102086.75;;;6.18;71.05
60852;BME280;48553;50.766;2.900;2023-03-04T00:45:13;102083.19;;;6.17;71.18
60852;BME280;48553;50.766;2.900;2023-03-04T00:48:13;102079.41;;;6.13;71.18
60852;BME280;48553;50.766;2.900;2023-03-04T00:51:15;102085.66;;;6.14;71.14
60852;BME280;48553;50.766;2.900;2023-03-04T00:54:15;102077.50;;;6.14;71.39
60852;BME280;48553;50.766;2.900;2023-03-04T00:57:16;102076.69;;;6.13;71.48
60852;BME280;48553;50.766;2.900;2023-03-04T01:00:16;102071.75;;;6.15;71.35
60852;BME280;48553;50.766;2.900;2023-03-04T01:03:17;102071.25;;;6.13;71.36
60852;BME280;48553;50.766;2.900;2023-03-04T01:06:17;102075.28;;;6.11;71.62
60852;BME280;48553;50.766;2.900;2023-03-04T01:09:18;102067.97;;;6.11;71.40
60852;BME280;48553;50.766;2.900;2023-03-04T01:12:18;102072.56;;;6.11;71.33
60852;BME280;48553;50.766;2.900;2023-03-04T01:15:19;102078.56;;;6.07;71.68
60852;BME280;48553;50.766;2.900;2023-03-04T01:18:19;102069.59;;;6.07;71.66
60852;BME280;48553;50.766;2.900;2023-03-04T01:21:19;102066.88;;;6.07;71.85
60852;BME280;48553;50.766;2.900;2023-03-04T01:24:20;102070.66;;;6.06;71.88
60852;BME280;48553;50.766;2.900;2023-03-04T01:27:20;102057.91;;;6.06;71.72
60852;BME280;48553;50.766;2.900;2023-03-04T01:30:21;102050.25;;;6.09;71.62
60852;BME280;48553;50.766;2.900;2023-03-04T01:33:21;102059.53;;;6.07;71.76
60852;BME280;48553;50.766;2.900;2023-03-04T01:36:21;102044.00;;;6.03;71.95
60852;BME280;48553;50.766;2.900;2023-03-04T01:39:22;102040.72;;;6.06;71.89
60852;BME280;48553;50.766;2.900;2023-03-04T01:42:33;102038.00;;;6.06;71.84
60852;BME280;48553;50.766;2.900;2023-03-04T01:45:35;102037.19;;;6.05;72.01
60852;BME280;48553;50.766;2.900;2023-03-04T01:48:36;102032.56;;;6.06;72.02
60852;BME280;48553;50.766;2.900;2023-03-04T01:51:37;102024.41;;;6.06;72.13
60852;BME280;48553;50.766;2.900;2023-03-04T01:54:38;102020.88;;;6.05;71.97
60852;BME280;48553;50.766;2.900;2023-03-04T01:57:38;102016.50;;;5.99;72.24
60852;BME280;48553;50.766;2.900;2023-03-04T02:00:39;102012.47;;;6.02;72.22
60852;BME280;48553;50.766;2.900;2023-03-04T02:03:40;102008.63;;;6.03;72.14
60852;BME280;48553;50.766;2.900;2023-03-04T02:06:40;102010.81;;;6.01;72.26
60852;BME280;48553;50.766;2.900;2023-03-04T02:09:41;102011.06;;;5.99;72.28
60852;BME280;48553;50.766;2.900;2023-03-04T02:12:41;102008.66;;;5.98;72.38
60852;BME280;48553;50.766;2.900;2023-03-04T02:15:43;102002.09;;;5.99;72.37
60852;BME280;48553;50.766;2.900;2023-03-04T02:18:44;102000.19;;;5.99;72.60
60852;BME280;48553;50.766;2.900;2023-03-04T02:21:45;102002.91;;;5.99;72.42
60852;BME280;48553;50.766;2.900;2023-03-04T02:24:49;101996.94;;;5.97;72.63
60852;BME280;48553;50.766;2.900;2023-03-04T02:27:52;101990.66;;;5.97;72.77
60852;BME280;48553;50.766;2.900;2023-03-04T02:30:52;101997.47;;;5.94;72.63
60852;BME280;48553;50.766;2.900;2023-03-04T02:33:55;101997.22;;;5.96;72.75
60852;BME280;48553;50.766;2.900;2023-03-04T02:36:57;101996.13;;;5.97;72.72
60852;BME280;48553;50.766;2.900;2023-03-04T02:39:57;101991.78;;;5.96;72.73
60852;BME280;48553;50.766;2.900;2023-03-04T02:42:59;101997.75;;;5.98;72.59
60852;BME280;48553;50.766;2.900;2023-03-04T02:46:00;101992.59;;;5.96;72.70
60852;BME280;48553;50.766;2.900;2023-03-04T02:49:01;101987.66;;;5.93;73.13
60852;BME280;48553;50.766;2.900;2023-03-04T02:52:04;101980.09;;;5.95;73.01
60852;BME280;48553;50.766;2.900;2023-03-04T02:55:05;101987.13;;;5.96;72.97
60852;BME280;48553;50.766;2.900;2023-03-04T02:58:06;101986.59;;;5.94;73.13
60852;BME280;48553;50.766;2.900;2023-03-04T03:01:07;101977.84;;;5.92;73.20
60852;BME280;48553;50.766;2.900;2023-03-04T03:04:08;101983.28;;;5.92;73.10
60852;BME280;48553;50.766;2.900;2023-03-04T03:07:08;101983.03;;;5.94;73.18
60852;BME280;48553;50.766;2.900;2023-03-04T03:10:10;101980.56;;;5.92;73.33
60852;BME280;48553;50.766;2.900;2023-03-04T03:13:11;101978.69;;;5.93;73.26
60852;BME280;48553;50.766;2.900;2023-03-04T03:16:11;101980.03;;;5.90;73.16
60852;BME280;48553;50.766;2.900;2023-03-04T03:19:11;101977.88;;;5.87;73.45
60852;BME280;48553;50.766;2.900;2023-03-04T03:22:12;101979.50;;;5.88;73.59
60852;BME280;48553;50.766;2.900;2023-03-04T03:25:13;101978.16;;;5.91;73.45
60852;BME280;48553;50.766;2.900;2023-03-04T03:28:14;101974.59;;;5.90;73.29
60852;BME280;48553;50.766;2.900;2023-03-04T03:31:15;101983.03;;;5.89;73.57
60852;BME280;48553;50.766;2.900;2023-03-04T03:34:15;101978.16;;;5.91;73.50
60852;BME280;48553;50.766;2.900;2023-03-04T03:37:16;101989.84;;;5.91;73.46
60852;BME280;48553;50.766;2.900;2023-03-04T03:40:16;101976.50;;;5.90;73.56
60852;BME280;48553;50.766;2.900;2023-03-04T03:43:17;101983.31;;;5.87;73.36
60852;BME280;48553;50.766;2.900;2023-03-04T03:46:17;101989.00;;;5.85;73.52
60852;BME280;48553;50.766;2.900;2023-03-04T03:49:18;101986.84;;;5.88;73.55
60852;BME280;48553;50.766;2.900;2023-03-04T03:52:18;101984.13;;;5.88;73.59
60852;BME280;48553;50.766;2.900;2023-03-04T03:55:18;101984.69;;;5.84;73.84
60852;BME280;48553;50.766;2.900;2023-03-04T03:58:19;101986.28;;;5.85;73.76
60852;BME280;48553;50.766;2.900;2023-03-04T04:01:19;101984.41;;;5.86;73.50
60852;BME280;48553;50.766;2.900;2023-03-04T04:04:20;101992.84;;;5.84;73.66
60852;BME280;48553;50.766;2.900;2023-03-04T04:07:20;101992.28;;;5.82;73.73
60852;BME280;48553;50.766;2.900;2023-03-04T04:10:20;101994.19;;;5.87;73.76
60852;BME280;48553;50.766;2.900;2023-03-04T04:13:21;101995.00;;;5.88;73.72
60852;BME280;48553;50.766;2.900;2023-03-04T04:16:21;101994.75;;;5.84;73.63
60852;BME280;48553;50.766;2.900;2023-03-04T04:19:22;101999.34;;;5.83;73.95
60852;BME280;48553;50.766;2.900;2023-03-04T04:22:22;101991.19;;;5.83;73.92
60852;BME280;48553;50.766;2.900;2023-03-04T04:25:23;101993.41;;;5.81;73.73
60852;BME280;48553;50.766;2.900;2023-03-04T04:28:23;101996.63;;;5.83;73.88
60852;BME280;48553;50.766;2.900;2023-03-04T04:31:24;101988.47;;;5.83;74.08
60852;BME280;48553;50.766;2.900;2023-03-04T04:34:24;101994.47;;;5.85;73.90
60852;BME280;48553;50.766;2.900;2023-03-04T04:37:25;101987.94;;;5.81;73.94
60852;BME280;48553;50.766;2.900;2023-03-04T04:40:25;101984.13;;;5.82;74.02
60852;BME280;48553;50.766;2.900;2023-03-04T04:43:26;101990.13;;;5.79;74.16
60852;BME280;48553;50.766;2.900;2023-03-04T04:46:26;101992.31;;;5.77;74.32
60852;BME280;48553;50.766;2.900;2023-03-04T04:49:27;101993.41;;;5.81;74.21
60852;BME280;48553;50.766;2.900;2023-03-04T04:52:27;101983.03;;;5.78;74.31
60852;BME280;48553;50.766;2.900;2023-03-04T04:55:28;101986.31;;;5.80;74.26
60852;BME280;48553;50.766;2.900;2023-03-04T04:58:28;101982.78;;;5.80;74.04
60852;BME280;48553;50.766;2.900;2023-03-04T05:01:29;101984.94;;;5.83;74.08
60852;BME280;48553;50.766;2.900;2023-03-04T05:04:29;101983.59;;;5.80;74.03
60852;BME280;48553;50.766;2.900;2023-03-04T05:07:30;101981.13;;;5.79;74.19
60852;BME280;48553;50.766;2.900;2023-03-04T05:10:30;101981.41;;;5.77;74.40
60852;BME280;48553;50.766;2.900;2023-03-04T05:13:31;101979.50;;;5.78;74.29
60852;BME280;48553;50.766;2.900;2023-03-04T05:16:32;101972.72;;;5.75;74.48
60852;BME280;48553;50.766;2.900;2023-03-04T05:19:32;101973.53;;;5.76;74.24
60852;BME280;48553;50.766;2.900;2023-03-04T05:22:33;101982.22;;;5.78;74.28
60852;BME280;48553;50.766;2.900;2023-03-04T05:25:34;101980.88;;;5.80;74.24
60852;BME280;48553;50.766;2.900;2023-03-04T05:28:34;101982.50;;;5.76;74.50
60852;BME280;48553;50.766;2.900;2023-03-04T05:31:35;101986.06;;;5.77;74.27
60852;BME280;48553;50.766;2.900;2023-03-04T05:34:35;101975.97;;;5.77;74.39
60852;BME280;48553;50.766;2.900;2023-03-04T05:37:36;101981.97;;;5.79;74.37
60852;BME280;48553;50.766;2.900;2023-03-04T05:40:36;101971.63;;;5.76;74.63
60852;BME280;48553;50.766;2.900;2023-03-04T05:43:38;101981.94;;;5.74;74.45
60852;BME280;48553;50.766;2.900;2023-03-04T05:46:41;101981.94;;;5.74;74.48
60852;BME280;48553;50.766;2.900;2023-03-04T05:49:42;101981.41;;;5.72;74.55
60852;BME280;48553;50.766;2.900;2023-03-04T05:52:43;101989.56;;;5.72;74.42
60852;BME280;48553;50.766;2.900;2023-03-04T05:55:47;101990.41;;;5.73;74.62
60852;BME280;48553;50.766;2.900;2023-03-04T05:58:47;101989.56;;;5.72;74.43
60852;BME280;48553;50.766;2.900;2023-03-04T06:01:48;101995.84;;;5.73;74.57
60852;BME280;48553;50.766;2.900;2023-03-04T06:04:49;101985.78;;;5.73;74.67
60852;BME280;48553;50.766;2.900;2023-03-04T06:07:49;102000.44;;;5.72;74.83
60852;BME280;48553;50.766;2.900;2023-03-04T06:10:54;101991.75;;;5.70;74.86
60852;BME280;48553;50.766;2.900;2023-03-04T06:13:56;101990.66;;;5.71;74.61
60852;BME280;48553;50.766;2.900;2023-03-04T06:16:56;101990.41;;;5.73;74.69
60852;BME280;48553;50.766;2.900;2023-03-04T06:19:56;102000.44;;;5.72;74.61
60852;BME280;48553;50.766;2.900;2023-03-04T06:22:57;102003.44;;;5.71;74.83
60852;BME280;48553;50.766;2.900;2023-03-04T06:25:58;102006.16;;;5.71;74.71
60852;BME280;48553;50.766;2.900;2023-03-04T06:28:59;102007.25;;;5.70;75.06
60852;BME280;48553;50.766;2.900;2023-03-04T06:32:00;102015.16;;;5.71;74.66
60852;BME280;48553;50.766;2.900;2023-03-04T06:35:00;102008.34;;;5.69;74.95
60852;BME280;48553;50.766;2.900;2023-03-04T06:38:00;102016.50;;;5.69;74.97
60852;BME280;48553;50.766;2.900;2023-03-04T06:41:09;102014.84;;;5.68;74.73
60852;BME280;48553;50.766;2.900;2023-03-04T06:44:10;102015.69;;;5.68;74.80
60852;BME280;48553;50.766;2.900;2023-03-04T06:47:10;102019.22;;;5.69;74.80
60852;BME280;48553;50.766;2.900;2023-03-04T06:50:12;102019.47;;;5.67;74.85
60852;BME280;48553;50.766;2.900;2023-03-04T06:53:13;102026.56;;;5.68;75.09
60852;BME280;48553;50.766;2.900;2023-03-04T06:56:13;102029.84;;;5.70;74.89
60852;BME280;48553;50.766;2.900;2023-03-04T06:59:16;102040.72;;;5.70;74.96
60852;BME280;48553;50.766;2.900;2023-03-04T07:02:17;102039.34;;;5.68;74.97
60852;BME280;48553;50.766;2.900;2023-03-04T07:05:17;102049.94;;;5.69;75.04
60852;BME280;48553;50.766;2.900;2023-03-04T07:08:17;102045.63;;;5.68;74.95
60852;BME280;48553;50.766;2.900;2023-03-04T07:11:19;102060.84;;;5.69;74.95
60852;BME280;48553;50.766;2.900;2023-03-04T07:14:21;102061.09;;;5.68;75.34
60852;BME280;48553;50.766;2.900;2023-03-04T07:17:21;102065.47;;;5.69;75.34
60852;BME280;48553;50.766;2.900;2023-03-04T07:20:21;102060.84;;;5.69;75.30
60852;BME280;48553;50.766;2.900;2023-03-04T07:23:22;102067.63;;;5.67;75.40
60852;BME280;48553;50.766;2.900;2023-03-04T07:26:22;102067.91;;;5.70;75.20
60852;BME280;48553;50.766;2.900;2023-03-04T07:29:23;102074.44;;;5.69;75.45
60852;BME280;48553;50.766;2.900;2023-03-04T07:32:23;102076.09;;;5.70;75.53
60852;BME280;48553;50.766;2.900;2023-03-04T07:35:24;102077.69;;;5.71;75.45
60852;BME280;48553;50.766;2.900;2023-03-04T07:38:24;102080.41;;;5.71;75.54
60852;BME280;48553;50.766;2.900;2023-03-04T07:41:26;102083.94;;;5.72;75.64
60852;BME280;48553;50.766;2.900;2023-03-04T07:44:27;102086.66;;;5.72;75.82
60852;BME280;48553;50.766;2.900;2023-03-04T07:47:27;102085.59;;;5.73;75.79
60852;BME280;48553;50.766;2.900;2023-03-04T07:50:28;102084.25;;;5.75;75.72
60852;BME280;48553;50.766;2.900;2023-03-04T07:53:28;102094.31;;;5.75;75.90
60852;BME280;48553;50.766;2.900;2023-03-04T07:56:31;102086.97;;;5.75;75.99
60852;BME280;48553;50.766;2.900;2023-03-04T07:59:32;102088.59;;;5.76;76.37
60852;BME280;48553;50.766;2.900;2023-03-04T08:02:32;102091.31;;;5.76;76.18
60852;BME280;48553;50.766;2.900;2023-03-04T08:05:33;102090.78;;;5.79;76.41
60852;BME280;48553;50.766;2.900;2023-03-04T08:08:34;102085.88;;;5.81;76.00
60852;BME280;48553;50.766;2.900;2023-03-04T08:11:36;102080.44;;;5.81;76.21
60852;BME280;48553;50.766;2.900;2023-03-04T08:14:37;102080.16;;;5.83;76.19
60852;BME280;48553;50.766;2.900;2023-03-04T08:17:37;102097.31;;;5.89;76.14
60852;BME280;48553;50.766;2.900;2023-03-04T08:20:41;102090.22;;;5.88;76.39
60852;BME280;48553;50.766;2.900;2023-03-04T08:23:42;102090.78;;;5.90;75.98
60852;BME280;48553;50.766;2.900;2023-03-04T08:26:45;102092.44;;;5.91;76.46
60852;BME280;48553;50.766;2.900;2023-03-04T08:29:46;102094.31;;;5.90;76.51
60852;BME280;48553;50.766;2.900;2023-03-04T08:32:47;102098.13;;;5.89;76.30
60852;BME280;48553;50.766;2.900;2023-03-04T08:35:47;102100.28;;;5.92;76.54
60852;BME280;48553;50.766;2.900;2023-03-04T08:38:48;102102.53;;;5.95;76.31
60852;BME280;48553;50.766;2.900;2023-03-04T08:41:48;102097.31;;;5.94;76.61
60852;BME280;48553;50.766;2.900;2023-03-04T08:44:49;102097.31;;;5.94;76.74
60852;BME280;48553;50.766;2.900;2023-03-04T08:47:50;102104.44;;;6.00;76.84
60852;BME280;48553;50.766;2.900;2023-03-04T08:50:51;102093.81;;;5.98;76.79
60852;BME280;48553;50.766;2.900;2023-03-04T08:53:51;102099.00;;;6.00;77.00
60852;BME280;48553;50.766;2.900;2023-03-04T08:56:52;102102.25;;;6.02;77.12
60852;BME280;48553;50.766;2.900;2023-03-04T08:59:52;102098.19;;;6.04;77.23
60852;BME280;48553;50.766;2.900;2023-03-04T09:02:53;102096.28;;;6.00;77.50
60852;BME280;48553;50.766;2.900;2023-03-04T09:05:55;102099.78;;;6.05;77.23
60852;BME280;48553;50.766;2.900;2023-03-04T09:08:55;102102.25;;;6.07;77.44
60852;BME280;48553;50.766;2.900;2023-03-04T09:11:56;102100.59;;;6.06;77.76
60852;BME280;48553;50.766;2.900;2023-03-04T09:14:56;102103.31;;;6.06;77.75
60852;BME280;48553;50.766;2.900;2023-03-04T09:17:57;102098.19;;;6.04;78.32
60852;BME280;48553;50.766;2.900;2023-03-04T09:20:57;102104.97;;;6.02;78.57
60852;BME280;48553;50.766;2.900;2023-03-04T09:23:58;102102.78;;;6.04;78.25
60852;BME280;48553;50.766;2.900;2023-03-04T09:26:58;102105.25;;;6.05;78.38
60852;BME280;48553;50.766;2.900;2023-03-04T09:29:59;102093.28;;;6.06;78.46
60852;BME280;48553;50.766;2.900;2023-03-04T09:32:59;102078.56;;;6.07;78.74
60852;BME280;48553;50.766;2.900;2023-03-04T09:36:00;102084.00;;;6.07;78.62
60852;BME280;48553;50.766;2.900;2023-03-04T09:39:02;102089.75;;;6.11;78.52
60852;BME280;48553;50.766;2.900;2023-03-04T09:42:05;102085.38;;;6.15;78.92
60852;BME280;48553;50.766;2.900;2023-03-04T09:45:07;102086.47;;;6.19;78.46
60852;BME280;48553;50.766;2.900;2023-03-04T09:48:11;102089.19;;;6.30;78.20
60852;BME280;48553;50.766;2.900;2023-03-04T09:51:34;102094.56;;;6.60;77.65
60852;BME280;48553;50.766;2.900;2023-03-04T09:54:56;102081.75;;;6.71;77.01
60852;BME280;48553;50.766;2.900;2023-03-04T10:01:53;102087.50;;;6.64;77.00
60852;BME280;48553;50.766;2.900;2023-03-04T10:04:58;102094.31;;;6.62;77.01
60852;BME280;48553;50.766;2.900;2023-03-04T10:08:20;102099.75;;;6.62;77.60
60852;BME280;48553;50.766;2.900;2023-03-04T10:11:27;102095.69;;;6.59;77.57
60852;BME280;48553;50.766;2.900;2023-03-04T10:14:34;102089.97;;;6.61;77.58
60852;BME280;48553;50.766;2.900;2023-03-04T10:17:39;102093.19;;;6.63;78.07
60852;BME280;48553;50.766;2.900;2023-03-04T10:23:50;102103.03;;;6.64;77.60
60852;BME280;48553;50.766;2.900;2023-03-04T10:27:06;102089.13;;;6.65;77.57
60852;BME280;48553;50.766;2.900;2023-03-04T10:30:19;102096.75;;;6.63;77.47
60852;BME280;48553;50.766;2.900;2023-03-04T10:33:25;102090.22;;;6.64;77.61
60852;BME280;48553;50.766;2.900;2023-03-04T10:39:35;102092.13;;;6.64;77.84
60852;BME280;48553;50.766;2.900;2023-03-04T10:42:36;102083.41;;;6.62;77.91
60852;BME280;48553;50.766;2.900;2023-03-04T10:45:38;102082.31;;;6.63;77.82
60852;BME280;48553;50.766;2.900;2023-03-04T10:48:41;102089.41;;;6.64;77.87
60852;BME280;48553;50.766;2.900;2023-03-04T10:51:50;102085.31;;;6.66;77.53
60852;BME280;48553;50.766;2.900;2023-03-04T10:54:57;102090.75;;;6.66;77.79
60852;BME280;48553;50.766;2.900;2023-03-04T10:58:12;102080.41;;;6.68;77.65
60852;BME280;48553;50.766;2.900;2023-03-04T11:01:15;102081.47;;;6.73;77.43
60852;BME280;48553;50.766;2.900;2023-03-04T11:04:17;102082.53;;;6.77;77.35
60852;BME280;48553;50.766;2.900;2023-03-04T11:07:19;102074.38;;;6.82;77.06
60852;BME280;48553;50.766;2.900;2023-03-04T11:13:29;102073.53;;;6.86;76.61
60852;BME280;48553;50.766;2.900;2023-03-04T11:16:31;102071.06;;;6.90;76.77
60852;BME280;48553;50.766;2.900;2023-03-04T11:19:46;102069.69;;;6.93;76.38
60852;BME280;48553;50.766;2.900;2023-03-04T11:22:47;102066.66;;;6.99;76.21
60852;BME280;48553;50.766;2.900;2023-03-04T11:25:54;102057.28;;;7.26;76.07
60852;BME280;48553;50.766;2.900;2023-03-04T11:29:09;102067.34;;;7.30;76.27
60852;BME280;48553;50.766;2.900;2023-03-04T11:32:21;102059.72;;;7.27;75.74
60852;BME280;48553;50.766;2.900;2023-03-04T11:35:27;102057.28;;;7.26;75.67
60852;BME280;48553;50.766;2.900;2023-03-04T11:38:35;102063.00;;;7.24;75.54
60852;BME280;48553;50.766;2.900;2023-03-04T11:41:41;102053.19;;;7.23;75.67
60852;BME280;48553;50.766;2.900;2023-03-04T11:44:46;102062.50;;;7.22;75.47
60852;BME280;48553;50.766;2.900;2023-03-04T11:58:20;102038.19;;;7.26;75.36
60852;BME280;48553;50.766;2.900;2023-03-04T12:01:46;102017.94;;;7.37;75.50
60852;BME280;48553;50.766;2.900;2023-03-04T12:05:18;102019.75;;;7.52;75.33
60852;BME280;48553;50.766;2.900;2023-03-04T12:15:18;102015.25;;;7.71;75.01
60852;BME280;48553;50.766;2.900;2023-03-04T12:32:17;101984.22;;;7.91;75.67
60852;BME280;48553;50.766;2.900;2023-03-04T12:38:33;101976.91;;;7.87;75.35
60852;BME280;48553;50.766;2.900;2023-03-04T12:45:03;101981.31;;;7.83;74.80
60852;BME280;48553;50.766;2.900;2023-03-04T12:51:26;101967.13;;;7.81;74.58
60852;BME280;48553;50.766;2.900;2023-03-04T12:54:39;101965.78;;;7.78;75.19
60852;BME280;48553;50.766;2.900;2023-03-04T12:57:41;101963.88;;;7.79;74.83
60852;BME280;48553;50.766;2.900;2023-03-04T13:00:54;101959.25;;;7.79;74.91
60852;BME280;48553;50.766;2.900;2023-03-04T13:04:11;101954.06;;;7.78;74.92
60852;BME280;48553;50.766;2.900;2023-03-04T13:10:34;101943.91;;;7.83;74.84
60852;BME280;48553;50.766;2.900;2023-03-04T13:16:47;101953.16;;;7.87;74.67
60852;BME280;48553;50.766;2.900;2023-03-04T13:19:56;101932.13;;;7.88;75.02
60852;BME280;48553;50.766;2.900;2023-03-04T13:26:17;101922.50;;;7.95;74.33
60852;BME280;48553;50.766;2.900;2023-03-04T13:32:37;101930.81;;;8.09;74.11
60852;BME280;48553;50.766;2.900;2023-03-04T13:42:40;101927.63;;;8.02;74.95
60852;BME280;48553;50.766;2.900;2023-03-04T13:45:41;101920.59;;;7.96;74.56
60852;BME280;48553;50.766;2.900;2023-03-04T13:48:54;101920.06;;;7.94;74.52
60852;BME280;48553;50.766;2.900;2023-03-04T13:55:40;101924.72;;;7.93;74.39
60852;BME280;48553;50.766;2.900;2023-03-04T13:58:43;101929.38;;;7.93;75.19
60852;BME280;48553;50.766;2.900;2023-03-04T14:01:53;101921.19;;;7.93;75.24
60852;BME280;48553;50.766;2.900;2023-03-04T14:04:59;101930.69;;;7.95;74.81
60852;BME280;48553;50.766;2.900;2023-03-04T14:08:17;101926.91;;;7.91;74.58
60852;BME280;48553;50.766;2.900;2023-03-04T14:14:24;101930.84;;;7.80;76.61
60852;BME280;48553;50.766;2.900;2023-03-04T14:17:28;101921.84;;;7.80;77.08
60852;BME280;48553;50.766;2.900;2023-03-04T14:20:46;101922.41;;;7.77;77.35
60852;BME280;48553;50.766;2.900;2023-03-04T14:24:02;101921.03;;;7.79;77.28
60852;BME280;48553;50.766;2.900;2023-03-04T14:27:12;101912.84;;;7.79;77.38
60852;BME280;48553;50.766;2.900;2023-03-04T14:30:27;101906.88;;;7.77;77.80
60852;BME280;48553;50.766;2.900;2023-03-04T14:33:29;101901.09;;;7.79;77.91
60852;BME280;48553;50.766;2.900;2023-03-04T14:36:32;101899.75;;;7.81;77.84
60852;BME280;48553;50.766;2.900;2023-03-04T14:39:33;101895.38;;;7.80;77.66
60852;BME280;48553;50.766;2.900;2023-03-04T14:42:40;101890.19;;;7.79;78.01
60852;BME280;48553;50.766;2.900;2023-03-04T14:45:47;101891.03;;;7.79;77.45
60852;BME280;48553;50.766;2.900;2023-03-04T14:48:51;101888.09;;;7.70;78.76
60852;BME280;48553;50.766;2.900;2023-03-04T14:51:53;101883.19;;;7.67;78.35
60852;BME280;48553;50.766;2.900;2023-03-04T14:55:18;101881.00;;;7.69;78.02
60852;BME280;48553;50.766;2.900;2023-03-04T14:58:21;101880.44;;;7.72;77.27
60852;BME280;48553;50.766;2.900;2023-03-04T15:01:31;101874.47;;;7.70;77.75
60852;BME280;48553;50.766;2.900;2023-03-04T15:04:32;101860.00;;;7.70;77.77
60852;BME280;48553;50.766;2.900;2023-03-04T15:07:35;101869.28;;;7.69;77.84
60852;BME280;48553;50.766;2.900;2023-03-04T15:10:37;101872.00;;;7.69;77.83
60852;BME280;48553;50.766;2.900;2023-03-04T15:16:55;101859.25;;;7.64;78.10
60852;BME280;48553;50.766;2.900;2023-03-04T15:20:16;101857.91;;;7.62;78.13
60852;BME280;48553;50.766;2.900;2023-03-04T15:23:17;101854.38;;;7.61;78.19
60852;BME280;48553;50.766;2.900;2023-03-04T15:26:17;101850.00;;;7.60;78.49
60852;BME280;48553;50.766;2.900;2023-03-04T15:29:19;101838.00;;;7.61;78.31
60852;BME280;48553;50.766;2.900;2023-03-04T15:32:22;101846.19;;;7.61;78.45
60852;BME280;48553;50.766;2.900;2023-03-04T15:35:23;101843.44;;;7.61;79.41
60852;BME280;48553;50.766;2.900;2023-03-04T15:38:25;101834.97;;;7.63;79.01
60852;BME280;48553;50.766;2.900;2023-03-04T15:41:26;101827.03;;;7.66;78.98
60852;BME280;48553;50.766;2.900;2023-03-04T15:44:27;101838.53;;;7.63;79.20
60852;BME280;48553;50.766;2.900;2023-03-04T15:47:27;101833.34;;;7.62;79.96
60852;BME280;48553;50.766;2.900;2023-03-04T15:50:28;101835.50;;;7.65;79.21
60852;BME280;48553;50.766;2.900;2023-03-04T15:56:49;101825.75;;;7.59;79.43
60852;BME280;48553;50.766;2.900;2023-03-04T15:59:50;101835.88;;;7.53;79.59
60852;BME280;48553;50.766;2.900;2023-03-04T16:02:50;101834.81;;;7.54;79.37
60852;BME280;48553;50.766;2.900;2023-03-04T16:05:51;101833.97;;;7.53;79.19
60852;BME280;48553;50.766;2.900;2023-03-04T16:08:52;101840.81;;;7.51;79.53
60852;BME280;48553;50.766;2.900;2023-03-04T16:11:52;101836.75;;;7.48;79.70
60852;BME280;48553;50.766;2.900;2023-03-04T16:14:55;101832.94;;;7.49;79.46
60852;BME280;48553;50.766;2.900;2023-03-04T16:17:56;101822.03;;;7.49;79.84
60852;BME280;48553;50.766;2.900;2023-03-04T16:20:57;101828.03;;;7.46;79.69
60852;BME280;48553;50.766;2.900;2023-03-04T16:23:59;101819.84;;;7.46;79.72
60852;BME280;48553;50.766;2.900;2023-03-04T16:26:59;101825.03;;;7.48;79.98
60852;BME280;48553;50.766;2.900;2023-03-04T16:30:00;101818.47;;;7.49;80.03
60852;BME280;48553;50.766;2.900;2023-03-04T16:33:00;101816.03;;;7.47;80.01
60852;BME280;48553;50.766;2.900;2023-03-04T16:36:00;101822.91;;;7.45;80.17
60852;BME280;48553;50.766;2.900;2023-03-04T16:39:06;101824.25;;;7.42;80.11
60852;BME280;48553;50.766;2.900;2023-03-04T16:42:13;101812.53;;;7.42;80.27
60852;BME280;48553;50.766;2.900;2023-03-04T16:45:19;101816.66;;;7.39;79.99
60852;BME280;48553;50.766;2.900;2023-03-04T16:48:20;101814.22;;;7.38;79.73
60852;BME280;48553;50.766;2.900;2023-03-04T16:51:21;101815.84;;;7.39;79.79
60852;BME280;48553;50.766;2.900;2023-03-04T16:54:26;101806.88;;;7.38;79.78
60852;BME280;48553;50.766;2.900;2023-03-04T16:57:29;101812.34;;;7.33;79.89
60852;BME280;48553;50.766;2.900;2023-03-04T17:00:30;101815.38;;;7.31;79.96
60852;BME280;48553;50.766;2.900;2023-03-04T17:03:31;101812.13;;;7.29;79.92
60852;BME280;48553;50.766;2.900;2023-03-04T17:06:31;101814.53;;;7.31;79.65
60852;BME280;48553;50.766;2.900;2023-03-04T17:09:33;101817.56;;;7.29;79.67
60852;BME280;48553;50.766;2.900;2023-03-04T17:12:33;101817.56;;;7.29;79.93
60852;BME280;48553;50.766;2.900;2023-03-04T17:15:34;101813.22;;;7.28;79.99
60852;BME280;48553;50.766;2.900;2023-03-04T17:18:34;101812.69;;;7.26;80.28
60852;BME280;48553;50.766;2.900;2023-03-04T17:21:35;101815.72;;;7.25;80.27
60852;BME280;48553;50.766;2.900;2023-03-04T17:24:35;101819.53;;;7.24;80.27
60852;BME280;48553;50.766;2.900;2023-03-04T17:27:36;101818.72;;;7.23;80.13
60852;BME280;48553;50.766;2.900;2023-03-04T17:30:37;101819.84;;;7.22;79.72
60852;BME280;48553;50.766;2.900;2023-03-04T17:33:37;101817.66;;;7.19;79.43